Time;durP1;ratioP1;P1;durP2;ratioP2;P2;SDS_P1;SDS_P2;PMS_P1;PMS_P2;Temp;Humidity;BMP_temperature;BMP_pressure;BME280_temperature;BME280_humidity;BME280_pressure;Samples;Min_cycle;Max_cycle;Signal;HPM_P1;HPM_P2
2022/07/16 00:02:10;;;;;;;7.85;3.58;;;;;;;15.42;nan;99002.59;5067811;28;20521;-69
2022/07/16 00:04:35;;;;;;;4.68;3.17;;;;;;;15.37;nan;98996.81;5066031;28;20712;-70
2022/07/16 00:06:59;;;;;;;6.88;3.33;;;;;;;15.35;nan;99003.38;5065758;28;20130;-67
2022/07/16 00:09:24;;;;;;;5.78;2.92;;;;;;;15.32;nan;98993.78;5064432;28;20047;-68
2022/07/16 00:11:49;;;;;;;5.68;3.20;;;;;;;15.34;nan;98997.16;5049773;28;20031;-68
2022/07/16 00:14:14;;;;;;;3.63;3.00;;;;;;;15.32;nan;98995.63;5064763;28;20053;-68
2022/07/16 00:16:38;;;;;;;6.55;3.38;;;;;;;15.30;nan;99001.13;5065590;28;20048;-67
2022/07/16 00:19:15;;;;;;;7.10;3.47;;;;;;;15.31;nan;99001.97;5065345;28;20103;-70
2022/07/16 00:21:40;;;;;;;7.30;3.45;;;;;;;15.32;nan;98999.16;5064435;28;20044;-68
2022/07/16 00:24:07;;;;;;;6.30;3.00;;;;;;;15.27;nan;98998.75;5067619;28;20097;-68
2022/07/16 00:26:31;;;;;;;7.00;4.93;;;;;;;15.23;nan;99008.97;5064675;28;20036;-70
2022/07/16 00:28:56;;;;;;;6.30;2.75;;;;;;;15.23;nan;99000.09;5048440;28;20176;-68
2022/07/16 00:31:21;;;;;;;9.43;3.53;;;;;;;15.21;nan;99002.06;5066020;28;20055;-69
2022/07/16 00:33:46;;;;;;;5.70;3.70;;;;;;;15.19;nan;99006.75;5065497;28;20095;-68
2022/07/16 00:36:10;;;;;;;5.55;3.55;;;;;;;15.18;nan;99007.75;5049456;28;20078;-68
2022/07/16 00:38:35;;;;;;;6.88;2.83;;;;;;;15.13;nan;99013.56;5047391;28;20047;-70
2022/07/16 00:41:00;;;;;;;5.82;3.53;;;;;;;15.10;nan;99013.03;5065337;28;20050;-70
2022/07/16 00:43:25;;;;;;;5.20;3.53;;;;;;;15.08;nan;99012.34;5048263;28;20059;-67
2022/07/16 00:45:50;;;;;;;7.13;3.22;;;;;;;15.05;nan;99026.06;5046186;28;20054;-69
2022/07/16 00:48:15;;;;;;;5.03;3.10;;;;;;;15.04;nan;99016.31;5031157;28;20039;-68
2022/07/16 00:50:41;;;;;;;7.88;3.45;;;;;;;15.02;nan;99018.31;5063717;28;20055;-68
2022/07/16 00:53:09;;;;;;;7.97;2.92;;;;;;;15.01;nan;99022.03;5038494;28;20036;-72
2022/07/16 00:55:34;;;;;;;7.20;3.13;;;;;;;14.95;nan;99025.31;5037759;28;20046;-70
2022/07/16 00:57:59;;;;;;;7.78;3.42;;;;;;;14.88;nan;99015.19;5054064;28;20048;-71
2022/07/16 01:00:25;;;;;;;5.25;3.20;;;;;;;14.84;nan;99027.22;5053950;28;20040;-79
2022/07/16 01:02:50;;;;;;;6.30;3.22;;;;;;;14.78;nan;99030.50;5077932;28;20045;-72
2022/07/16 01:05:16;;;;;;;6.88;3.80;;;;;;;14.74;nan;99026.44;5077695;28;20040;-79
2022/07/16 01:07:42;;;;;;;8.38;3.60;;;;;;;14.70;nan;99026.88;5058517;28;20044;-78
2022/07/16 01:10:07;;;;;;;7.55;3.65;;;;;;;14.72;nan;99033.78;5022387;28;20078;-70
2022/07/16 01:12:33;;;;;;;6.75;3.70;;;;;;;14.61;nan;99025.09;5039674;28;20044;-73
2022/07/16 01:14:58;;;;;;;7.30;3.20;;;;;;;14.52;nan;99029.53;5038925;28;20078;-72
2022/07/16 01:17:23;;;;;;;6.97;3.13;;;;;;;14.48;nan;99028.97;5038162;28;20110;-72
2022/07/16 01:19:48;;;;;;;11.25;3.75;;;;;;;14.43;nan;99031.28;5036479;28;20040;-72
2022/07/16 01:22:20;;;;;;;5.28;3.53;;;;;;;14.41;nan;99029.72;5035370;28;20132;-72
2022/07/16 01:24:45;;;;;;;7.75;3.80;;;;;;;14.35;nan;99033.81;5035925;28;20048;-77
2022/07/16 01:27:09;;;;;;;10.02;3.95;;;;;;;14.31;nan;99031.59;5018228;28;20037;-74
2022/07/16 01:29:34;;;;;;;9.32;3.42;;;;;;;14.29;nan;99034.41;5018031;28;20052;-71
2022/07/16 01:31:59;;;;;;;14.10;3.53;;;;;;;14.27;nan;99038.22;5036200;28;20056;-71
2022/07/16 01:34:26;;;;;;;8.57;3.67;;;;;;;14.24;nan;99042.03;5017582;28;20045;-71
2022/07/16 01:36:57;;;;;;;8.93;3.22;;;;;;;14.25;nan;99041.06;5017649;28;20131;-71
2022/07/16 01:39:23;;;;;;;7.55;3.65;;;;;;;14.20;nan;99039.81;5050314;28;20590;-71
2022/07/16 01:41:55;;;;;;;6.65;3.25;;;;;;;14.22;nan;99043.19;5056100;28;20040;-71
2022/07/16 01:44:21;;;;;;;6.05;3.20;;;;;;;14.18;nan;99048.00;5056318;28;20059;-72
2022/07/16 01:46:46;;;;;;;5.03;2.83;;;;;;;14.20;nan;99054.06;5055508;28;20071;-75
2022/07/16 01:49:11;;;;;;;5.53;3.15;;;;;;;14.21;nan;99047.72;5055695;28;20075;-67
2022/07/16 01:51:35;;;;;;;4.72;2.88;;;;;;;14.24;nan;99050.09;5037504;28;20118;-70
2022/07/16 01:54:00;;;;;;;6.88;3.22;;;;;;;14.29;nan;99052.34;5055411;28;20047;-71
2022/07/16 01:56:25;;;;;;;7.00;3.97;;;;;;;14.35;nan;99055.25;5055391;28;20059;-71
2022/07/16 01:58:50;;;;;;;6.30;3.33;;;;;;;14.41;nan;99053.88;5055597;28;20059;-73
2022/07/16 02:01:14;;;;;;;4.10;3.08;;;;;;;14.47;nan;99046.06;5037057;28;20406;-73
2022/07/16 02:03:39;;;;;;;8.40;3.28;;;;;;;14.55;nan;99056.06;5037503;28;20923;-73
2022/07/16 02:06:04;;;;;;;9.82;2.75;;;;;;;14.61;nan;99050.09;5036773;28;20032;-74
2022/07/16 02:08:29;;;;;;;3.92;2.95;;;;;;;14.70;nan;99057.22;5044677;28;20517;-73
2022/07/16 02:10:54;;;;;;;6.22;2.95;;;;;;;14.77;nan;99066.41;5055572;28;20136;-73
2022/07/16 02:13:19;;;;;;;3.97;2.58;;;;;;;14.87;nan;99053.75;5054827;28;20410;-70
2022/07/16 02:16:04;;;;;;;3.38;2.72;;;;;;;14.98;nan;99055.38;5032403;28;20048;-70
2022/07/16 02:18:28;;;;;;;6.55;3.17;;;;;;;15.05;nan;99058.28;5055804;28;20471;-73
2022/07/16 02:20:54;;;;;;;3.88;2.60;;;;;;;15.12;nan;99059.38;5048737;28;20126;-72
2022/07/16 02:23:19;;;;;;;4.32;2.65;;;;;;;15.19;nan;99050.56;5035485;28;20051;-71
2022/07/16 02:25:44;;;;;;;6.25;2.83;;;;;;;15.27;nan;99063.19;5052840;28;20040;-70
2022/07/16 02:28:09;;;;;;;4.60;2.78;;;;;;;15.35;nan;99065.97;5034212;28;20986;-70
2022/07/16 02:30:42;;;;;;;6.03;2.78;;;;;;;15.47;nan;99064.72;5016148;28;20081;-71
2022/07/16 02:33:09;;;;;;;4.53;3.03;;;;;;;15.50;nan;99061.75;5034458;28;20456;-71
2022/07/16 02:35:34;;;;;;;5.95;2.67;;;;;;;15.55;nan;99064.00;5016420;28;20040;-70
2022/07/16 02:38:00;;;;;;;15.35;5.38;;;;;;;15.58;nan;99061.00;5038852;28;20739;-70
2022/07/16 02:40:25;;;;;;;5.65;3.50;;;;;;;15.59;nan;99063.53;5036931;28;20510;-71
2022/07/16 02:42:50;;;;;;;4.57;2.67;;;;;;;15.65;nan;99066.59;5055692;28;20097;-76
2022/07/16 02:45:15;;;;;;;9.18;3.28;;;;;;;15.67;nan;99068.13;5055992;28;20040;-74
2022/07/16 02:47:40;;;;;;;6.55;3.10;;;;;;;15.77;nan;99076.09;5037460;28;20052;-72
2022/07/16 02:50:06;;;;;;;3.83;2.40;;;;;;;15.82;nan;99074.63;5056084;28;20405;-74
2022/07/16 02:52:31;;;;;;;7.35;3.30;;;;;;;15.92;nan;99071.81;5055645;28;20039;-75
2022/07/16 02:54:56;;;;;;;5.10;3.08;;;;;;;16.02;nan;99069.06;5020188;28;20047;-75
2022/07/16 02:57:21;;;;;;;8.30;3.50;;;;;;;16.04;nan;99062.50;5037383;28;20036;-74
2022/07/16 02:59:45;;;;;;;4.63;2.90;;;;;;;16.11;nan;99070.78;5036297;28;20537;-68
2022/07/16 03:02:10;;;;;;;5.97;2.97;;;;;;;16.18;nan;99067.31;5054379;28;20052;-67
2022/07/16 03:04:35;;;;;;;5.93;2.92;;;;;;;16.23;nan;99069.53;5055050;28;20040;-74
2022/07/16 03:07:00;;;;;;;7.13;3.50;;;;;;;16.29;nan;99069.72;5056043;28;20044;-75
2022/07/16 03:09:24;;;;;;;6.25;2.92;;;;;;;16.38;nan;99065.22;5056117;28;20502;-76
2022/07/16 03:11:49;;;;;;;5.40;3.22;;;;;;;16.47;nan;99079.59;5037512;28;20036;-74
2022/07/16 03:14:14;;;;;;;4.18;3.13;;;;;;;16.57;nan;99069.53;5055643;28;20085;-76
2022/07/16 03:16:39;;;;;;;5.20;3.20;;;;;;;16.68;nan;99077.34;5041156;28;20424;-70
2022/07/16 03:19:03;;;;;;;5.35;3.20;;;;;;;16.71;nan;99087.78;5046824;28;20028;-71
2022/07/16 03:21:28;;;;;;;4.53;2.83;;;;;;;16.70;nan;99095.00;5043934;28;20039;-73
2022/07/16 03:23:53;;;;;;;6.35;3.20;;;;;;;16.78;nan;99083.44;5063858;28;20456;-73
2022/07/16 03:26:18;;;;;;;4.28;3.08;;;;;;;16.88;nan;99089.53;5044168;28;20567;-71
2022/07/16 03:28:42;;;;;;;6.72;2.28;;;;;;;17.06;nan;99095.63;5065513;28;20040;-71
2022/07/16 03:31:08;;;;;;;9.52;3.13;;;;;;;17.20;nan;99096.00;5046170;28;20524;-71
2022/07/16 03:33:33;;;;;;;3.63;2.70;;;;;;;17.31;nan;99106.47;5045591;28;20490;-70
2022/07/16 03:35:57;;;;;;;6.90;3.22;;;;;;;17.39;nan;99109.19;5065379;28;20032;-70
2022/07/16 03:41:05;;;;;;;5.65;2.97;;;;;;;17.61;nan;99119.31;5069147;28;20039;-72
2022/07/16 03:43:30;;;;;;;7.28;2.78;;;;;;;17.72;nan;99099.31;5055091;28;20054;-71
2022/07/16 03:45:55;;;;;;;3.60;2.90;;;;;;;17.81;nan;99110.94;5055246;28;20039;-72
2022/07/16 03:48:20;;;;;;;2.80;2.58;;;;;;;17.85;nan;99105.03;5055319;28;20386;-71
2022/07/16 03:50:44;;;;;;;6.05;2.92;;;;;;;17.92;nan;99106.06;5052549;28;20147;-72
2022/07/16 03:53:09;;;;;;;11.43;2.83;;;;;;;18.01;nan;99109.59;5017060;28;20446;-71
2022/07/16 03:55:34;;;;;;;3.17;2.72;;;;;;;18.04;nan;99112.81;5018082;28;20139;-73
2022/07/16 03:57:59;;;;;;;3.42;2.47;;;;;;;18.20;nan;99111.91;5037123;28;20040;-71
2022/07/16 04:00:23;;;;;;;5.20;3.28;;;;;;;18.36;nan;99106.50;5022108;28;20040;-73
2022/07/16 04:02:48;;;;;;;5.38;2.90;;;;;;;18.55;nan;99112.53;5003303;28;20032;-71
2022/07/16 04:05:13;;;;;;;2.97;2.67;;;;;;;18.71;nan;99116.06;5037679;28;20048;-73
2022/07/16 04:07:37;;;;;;;6.13;2.53;;;;;;;18.91;nan;99115.63;5003066;28;20051;-72
2022/07/16 04:10:03;;;;;;;7.30;3.13;;;;;;;19.10;nan;99115.19;5019453;28;20055;-72
2022/07/16 04:12:28;;;;;;;3.33;2.28;;;;;;;19.28;nan;99121.19;5019620;28;20044;-72
2022/07/16 04:14:53;;;;;;;6.50;2.38;;;;;;;19.40;nan;99125.19;5003065;28;20040;-71
2022/07/16 04:17:18;;;;;;;3.85;2.78;;;;;;;19.45;nan;99122.75;5019239;28;20558;-71
2022/07/16 04:19:43;;;;;;;7.55;2.47;;;;;;;19.45;nan;99119.22;5019463;28;20040;-70
2022/07/16 04:22:08;;;;;;;4.53;2.50;;;;;;;19.44;nan;99121.06;5019562;28;20051;-72
2022/07/16 04:24:32;;;;;;;8.98;2.65;;;;;;;19.43;nan;99123.94;5037272;28;20048;-71
2022/07/16 04:26:57;;;;;;;4.25;2.40;;;;;;;19.36;nan;99136.50;5019154;28;20043;-72
2022/07/16 04:29:22;;;;;;;6.88;2.30;;;;;;;19.31;nan;99126.22;5019432;28;20495;-71
2022/07/16 04:31:47;;;;;;;3.38;2.35;;;;;;;19.36;nan;99123.00;5002715;28;20071;-71
2022/07/16 04:34:12;;;;;;;4.68;2.38;;;;;;;19.42;nan;99115.00;5018973;28;20051;-71
2022/07/16 04:36:36;;;;;;;3.03;1.88;;;;;;;19.64;nan;99120.66;5037254;28;20120;-71
2022/07/16 04:39:01;;;;;;;2.67;1.42;;;;;;;19.92;nan;99125.31;5019556;28;20068;-71
2022/07/16 04:41:26;;;;;;;4.22;2.00;;;;;;;20.28;nan;99127.38;5019687;28;20064;-71
2022/07/16 04:43:51;;;;;;;2.60;2.00;;;;;;;20.67;nan;99125.28;5002999;28;20134;-71
2022/07/16 04:46:16;;;;;;;6.05;2.05;;;;;;;21.06;nan;99123.31;5036779;28;20041;-71
2022/07/16 04:48:41;;;;;;;5.40;2.28;;;;;;;21.47;nan;99126.31;5036720;28;20103;-68
2022/07/16 04:51:06;;;;;;;6.28;2.10;;;;;;;21.83;nan;99123.56;5036937;28;20059;-72
2022/07/16 04:53:30;;;;;;;5.07;2.55;;;;;;;22.26;nan;99125.22;5036750;28;20061;-71
2022/07/16 04:55:55;;;;;;;5.10;2.85;;;;;;;22.70;nan;99122.19;5018999;28;20048;-70
2022/07/16 04:58:20;;;;;;;3.83;2.25;;;;;;;23.13;nan;99128.31;5037312;28;20050;-70
2022/07/16 05:00:45;;;;;;;4.75;1.90;;;;;;;23.48;nan;99129.06;5019159;28;20505;-70
2022/07/16 05:03:10;;;;;;;6.05;1.92;;;;;;;23.72;nan;99135.84;5002157;28;20036;-70
2022/07/16 05:05:37;;;;;;;5.30;1.95;;;;;;;24.01;nan;99140.09;5001858;28;20051;-71
2022/07/16 05:08:05;;;;;;;3.83;2.78;;;;;;;24.22;nan;99136.34;5036393;28;20051;-72
2022/07/16 05:10:30;;;;;;;7.40;2.17;;;;;;;24.44;nan;99139.69;5018090;28;20090;-70
2022/07/16 05:12:55;;;;;;;2.53;1.90;;;;;;;24.59;nan;99143.06;5017935;28;20044;-70
2022/07/16 05:15:21;;;;;;;5.45;2.22;;;;;;;24.69;nan;99142.63;5036167;28;20072;-70
2022/07/16 05:17:45;;;;;;;2.83;1.83;;;;;;;24.75;nan;99141.75;5036131;28;20052;-70
2022/07/16 05:20:10;;;;;;;2.03;1.90;;;;;;;24.83;nan;99138.81;5036132;28;20048;-70
2022/07/16 05:22:35;;;;;;;6.95;2.30;;;;;;;25.03;nan;99145.09;5036181;28;20411;-71
2022/07/16 05:25:00;;;;;;;3.63;2.33;;;;;;;25.16;nan;99133.28;5018293;28;20055;-74
2022/07/16 05:27:25;;;;;;;2.55;2.10;;;;;;;25.32;nan;99140.97;5018596;28;20045;-73
2022/07/16 05:29:49;;;;;;;3.83;1.88;;;;;;;25.38;nan;99147.47;5036320;28;20503;-74
2022/07/16 05:32:14;;;;;;;3.15;2.30;;;;;;;25.39;nan;99143.69;5018574;28;20453;-74
2022/07/16 05:34:39;;;;;;;4.30;2.28;;;;;;;25.43;nan;99143.00;5018554;28;20032;-75
2022/07/16 05:37:04;;;;;;;2.15;1.95;;;;;;;25.68;nan;99149.44;5017993;28;20044;-76
2022/07/16 05:39:29;;;;;;;3.13;2.00;;;;;;;25.77;nan;99149.16;5018259;28;20040;-74
2022/07/16 05:41:54;;;;;;;3.80;2.40;;;;;;;25.56;nan;99151.16;4985228;28;20498;-75
2022/07/16 05:44:19;;;;;;;4.32;2.03;;;;;;;25.52;nan;99152.63;5018625;28;20502;-75
2022/07/16 05:46:43;;;;;;;2.65;1.85;;;;;;;25.39;nan;99154.59;5018151;28;20044;-74
2022/07/16 05:49:08;;;;;;;3.17;2.10;;;;;;;25.22;nan;99159.69;5022998;28;20492;-75
2022/07/16 05:51:33;;;;;;;3.80;2.17;;;;;;;25.14;nan;99159.94;5036145;28;20040;-77
2022/07/16 05:53:58;;;;;;;3.28;2.20;;;;;;;25.10;nan;99156.78;5036215;28;20032;-78
2022/07/16 05:56:22;;;;;;;3.25;2.10;;;;;;;25.22;nan;99157.81;5036076;28;20118;-74
2022/07/16 05:58:47;;;;;;;3.35;2.53;;;;;;;25.46;nan;99147.22;5035683;28;20045;-74
2022/07/16 06:01:12;;;;;;;3.17;2.53;;;;;;;25.58;nan;99153.66;5035653;28;20044;-75
2022/07/16 06:03:39;;;;;;;2.38;2.13;;;;;;;25.72;nan;99157.19;5035396;28;20036;-74
2022/07/16 06:06:04;;;;;;;2.75;2.15;;;;;;;26.17;nan;99163.41;5001145;28;20189;-74
2022/07/16 06:08:29;;;;;;;3.45;2.53;;;;;;;26.50;nan;99234.25;5017595;28;20131;-73
2022/07/16 06:10:54;;;;;;;2.67;2.42;;;;;;;27.06;nan;99158.41;5035624;28;20131;-75
2022/07/16 06:13:18;;;;;;;2.60;2.40;;;;;;;27.60;nan;99158.63;5056121;28;20083;-73
2022/07/16 06:15:43;;;;;;;2.28;1.80;;;;;;;28.23;nan;99164.44;5043665;28;20048;-71
2022/07/16 06:18:08;;;;;;;2.35;2.00;;;;;;;28.99;nan;99171.81;5056876;28;20112;-76
2022/07/16 06:20:33;;;;;;;6.13;2.67;;;;;;;29.77;nan;99171.28;5044384;28;20366;-72
2022/07/16 06:22:57;;;;;;;3.15;2.65;;;;;;;30.68;nan;99163.88;5035139;28;20048;-72
2022/07/16 06:25:23;;;;;;;4.70;2.90;;;;;;;31.62;nan;99257.47;5017082;28;20048;-71
2022/07/16 06:27:48;;;;;;;4.45;2.70;;;;;;;32.74;nan;99169.34;5000308;28;20040;-71
2022/07/16 06:30:13;;;;;;;3.00;2.53;;;;;;;33.56;nan;99173.41;5000942;28;20056;-72
2022/07/16 06:32:39;;;;;;;3.95;2.47;;;;;;;32.73;nan;99167.66;5017064;28;20047;-74
2022/07/16 06:35:04;;;;;;;5.05;2.67;;;;;;;32.46;nan;99176.00;5017148;28;20048;-74
2022/07/16 06:37:29;;;;;;;3.70;2.42;;;;;;;32.20;nan;99167.75;5035209;28;20097;-78
2022/07/16 06:39:54;;;;;;;5.72;2.88;;;;;;;32.27;nan;99162.88;5018070;28;20141;-78
2022/07/16 06:42:19;;;;;;;5.55;3.08;;;;;;;32.35;nan;99162.38;5036559;28;20044;-75
2022/07/16 06:44:47;;;;;;;4.80;2.90;;;;;;;32.57;nan;99168.63;5046342;28;20052;-77
2022/07/16 06:47:12;;;;;;;3.05;2.28;;;;;;;32.79;nan;99161.09;5035030;28;20106;-75
2022/07/16 06:49:37;;;;;;;6.50;2.72;;;;;;;33.45;nan;99168.94;5034935;28;20052;-78
2022/07/16 06:52:02;;;;;;;4.55;2.78;;;;;;;33.84;nan;99175.75;5035353;28;20067;-75
2022/07/16 06:54:27;;;;;;;4.95;2.30;;;;;;;33.86;nan;99159.69;5035023;28;20083;-75
2022/07/16 06:56:51;;;;;;;3.38;2.38;;;;;;;33.79;nan;99167.44;5016838;28;20044;-77
2022/07/16 06:59:16;;;;;;;3.67;3.10;;;;;;;33.36;nan;99173.34;5016828;28;20068;-71
2022/07/16 07:01:41;;;;;;;4.32;2.65;;;;;;;33.35;nan;99164.22;5016611;28;20119;-70
2022/07/16 07:04:06;;;;;;;2.95;2.65;;;;;;;33.62;nan;99165.97;5016593;28;20132;-71
2022/07/16 07:06:30;;;;;;;3.22;2.83;;;;;;;34.03;nan;99169.72;5034348;28;20044;-70
2022/07/16 07:08:55;;;;;;;8.30;3.10;;;;;;;34.36;nan;99171.16;5016407;28;20535;-70
2022/07/16 07:11:20;;;;;;;6.38;3.10;;;;;;;34.18;nan;99176.09;5042153;28;20045;-71
2022/07/16 07:13:45;;;;;;;4.38;2.80;;;;;;;33.80;nan;99176.56;5022444;28;20509;-70
2022/07/16 07:16:09;;;;;;;3.38;2.83;;;;;;;33.51;nan;99167.88;5034887;28;20055;-70
2022/07/16 07:18:34;;;;;;;3.58;2.67;;;;;;;33.93;nan;99170.53;5034869;28;20044;-71
2022/07/16 07:21:00;;;;;;;4.93;3.10;;;;;;;34.21;nan;99166.41;5016517;28;20044;-71
2022/07/16 07:23:25;;;;;;;8.35;3.17;;;;;;;34.48;nan;99166.19;5016409;28;20047;-71
2022/07/16 07:25:49;;;;;;;4.90;3.03;;;;;;;35.52;nan;99167.38;5016470;28;20032;-71
2022/07/16 07:28:14;;;;;;;7.47;3.90;;;;;;;36.47;nan;99167.09;5016745;28;20479;-72
2022/07/16 07:30:40;;;;;;;10.68;3.92;;;;;;;36.60;nan;99185.88;5016154;28;20051;-71
2022/07/16 07:33:05;;;;;;;4.57;3.17;;;;;;;36.68;nan;99179.72;5034321;28;20041;-71
2022/07/16 07:35:30;;;;;;;4.05;3.13;;;;;;;37.18;nan;99175.63;5036971;28;20043;-70
2022/07/16 07:37:55;;;;;;;4.60;3.65;;;;;;;37.40;nan;99178.72;5038267;28;20048;-70
2022/07/16 07:40:20;;;;;;;4.93;3.75;;;;;;;37.84;nan;99177.63;5038139;28;20040;-71
2022/07/16 07:42:44;;;;;;;4.15;3.80;;;;;;;38.73;nan;99178.47;5037984;28;20040;-71
2022/07/16 07:45:10;;;;;;;4.20;3.90;;;;;;;39.72;nan;99183.56;5020090;28;20075;-71
2022/07/16 07:47:35;;;;;;;3.80;3.55;;;;;;;40.65;nan;99189.50;5020449;28;20044;-70
2022/07/16 07:50:03;;;;;;;4.78;3.58;;;;;;;39.98;nan;99183.03;5020070;28;20045;-70
2022/07/16 07:52:28;;;;;;;4.47;4.18;;;;;;;39.88;nan;99178.50;5037609;28;20402;-69
2022/07/16 07:54:53;;;;;;;5.55;3.92;;;;;;;40.98;nan;99238.44;5037768;28;20032;-72
2022/07/16 07:57:17;;;;;;;5.25;4.70;;;;;;;41.92;nan;99194.41;5019703;28;20047;-71
2022/07/16 07:59:42;;;;;;;4.80;4.40;;;;;;;41.59;nan;99186.44;5019649;28;20075;-77
2022/07/16 08:02:12;;;;;;;4.80;4.45;;;;;;;41.09;nan;99188.66;5021067;28;20094;-78
2022/07/16 08:04:37;;;;;;;4.88;4.47;;;;;;;39.77;nan;99241.22;5038010;28;20044;-79
2022/07/16 08:07:02;;;;;;;4.45;4.05;;;;;;;39.78;nan;99173.13;5037969;28;20123;-76
2022/07/16 08:09:27;;;;;;;5.82;4.30;;;;;;;39.88;nan;99182.13;5021300;28;20109;-77
2022/07/16 08:11:52;;;;;;;4.63;4.30;;;;;;;38.85;nan;99175.22;5040657;28;20052;-77
2022/07/16 08:14:17;;;;;;;5.47;4.55;;;;;;;39.10;nan;99180.34;5039639;28;20051;-76
2022/07/16 08:16:42;;;;;;;4.00;3.70;;;;;;;39.18;nan;99176.00;5021055;28;20094;-77
2022/07/16 08:19:07;;;;;;;5.50;4.63;;;;;;;39.85;nan;99182.72;5044329;28;20024;-77
2022/07/16 08:21:32;;;;;;;4.90;4.47;;;;;;;40.96;nan;99182.03;5019606;28;20044;-78
2022/07/16 08:26:39;;;;;;;;;;;;;;;42.51;nan;99190.03;5020136;28;20044;-78
2022/07/16 08:29:04;;;;;;;6.57;4.60;;;;;;;39.19;nan;99242.63;5037556;28;19916;-78
2022/07/16 08:31:29;;;;;;;4.32;3.92;;;;;;;36.20;nan;99179.50;5037483;28;20036;-74
2022/07/16 08:33:54;;;;;;;3.88;3.55;;;;;;;35.82;nan;99174.75;5020026;28;20036;-72
2022/07/16 08:36:19;;;;;;;6.03;4.03;;;;;;;37.21;nan;99182.56;5037355;28;20028;-75
2022/07/16 08:38:43;;;;;;;4.45;4.15;;;;;;;38.24;nan;99179.00;5019259;28;20040;-75
2022/07/16 08:41:09;;;;;;;4.03;3.67;;;;;;;39.20;nan;99187.69;5024682;28;20070;-75
2022/07/16 08:43:37;;;;;;;4.00;3.70;;;;;;;39.69;nan;99194.53;5019912;28;20036;-76
2022/07/16 08:46:02;;;;;;;5.93;4.05;;;;;;;40.30;nan;99188.44;5039056;28;20051;-76
2022/07/16 08:48:26;;;;;;;6.60;5.30;;;;;;;41.15;nan;99187.41;5040476;28;20538;-78
2022/07/16 08:50:53;;;;;;;5.68;4.30;;;;;;;42.11;nan;99196.91;5037465;28;20203;-75
2022/07/16 08:53:23;;;;;;;4.82;4.43;;;;;;;41.85;nan;99194.06;5025292;28;20040;-78
2022/07/16 08:55:49;;;;;;;5.43;4.20;;;;;;;42.26;nan;99188.88;5043603;28;20052;-78
2022/07/16 08:58:13;;;;;;;5.55;5.15;;;;;;;42.60;nan;99188.03;5037603;28;20127;-78
2022/07/16 09:00:39;;;;;;;5.88;4.78;;;;;;;42.42;nan;99194.84;5038012;28;20199;-77
2022/07/16 09:03:03;;;;;;;5.78;5.32;;;;;;;43.21;nan;99190.75;5038660;28;20040;-77
2022/07/16 09:05:28;;;;;;;6.32;5.93;;;;;;;44.47;nan;99193.47;5037036;28;20041;-79
2022/07/16 09:07:53;;;;;;;7.32;6.57;;;;;;;45.80;nan;99198.56;5037096;28;20063;-77
2022/07/16 09:10:19;;;;;;;7.65;7.15;;;;;;;47.07;nan;99183.03;5037870;28;20048;-77
2022/07/16 09:12:46;;;;;;;9.52;8.65;;;;;;;47.24;nan;99197.59;5038206;28;20407;-79
2022/07/16 09:15:31;;;;;;;8.27;7.68;;;;;;;47.10;nan;99193.56;5023001;28;20052;-79
2022/07/16 09:18:06;;;;;;;9.48;8.80;;;;;;;46.93;nan;99197.53;5041355;28;20056;-77
2022/07/16 09:20:31;;;;;;;8.60;7.90;;;;;;;46.49;nan;99194.69;5037559;28;20519;-77
2022/07/16 09:22:56;;;;;;;9.23;8.52;;;;;;;46.86;nan;99192.50;5037472;28;20123;-79
2022/07/16 09:25:21;;;;;;;11.13;10.13;;;;;;;47.92;nan;99202.13;5019176;28;20155;-77
2022/07/16 09:27:55;;;;;;;11.23;10.52;;;;;;;47.89;nan;99205.69;5018722;28;20052;-77
2022/07/16 09:30:25;;;;;;;10.55;9.93;;;;;;;47.03;nan;99196.22;5018563;28;20052;-72
2022/07/16 09:32:50;;;;;;;11.48;10.68;;;;;;;46.65;nan;99199.56;5035991;28;20048;-71
2022/07/16 09:35:16;;;;;;;10.80;10.10;;;;;;;47.23;nan;99197.97;5017994;28;20048;-76
2022/07/16 09:37:45;;;;;;;10.82;10.10;;;;;;;47.95;nan;99199.38;5036322;28;20036;-74
2022/07/16 09:40:11;;;;;;;10.68;9.82;;;;;;;48.39;nan;99194.31;5018171;28;20075;-76
2022/07/16 09:42:40;;;;;;;12.27;11.55;;;;;;;49.02;nan;99196.81;5018022;28;20528;-77
2022/07/16 09:45:19;;;;;;;12.35;11.60;;;;;;;49.32;nan;99199.81;5035977;28;20049;-77
2022/07/16 09:47:44;;;;;;;12.95;12.15;;;;;;;48.95;nan;99198.69;5036061;28;20542;-75
2022/07/16 09:50:09;;;;;;;11.77;10.98;;;;;;;48.84;nan;99198.50;5017726;28;20127;-75
2022/07/16 09:52:34;;;;;;;13.57;12.65;;;;;;;49.01;nan;99198.00;5035584;28;20046;-73
2022/07/16 09:55:00;;;;;;;14.90;13.70;;;;;;;48.98;nan;99192.28;5035797;28;20123;-72
2022/07/16 09:57:27;;;;;;;13.52;12.55;;;;;;;47.30;nan;99195.31;5034986;28;20380;-73
2022/07/16 09:59:53;;;;;;;8.77;7.93;;;;;;;44.60;nan;99180.25;5035594;28;20109;-73
2022/07/16 10:02:18;;;;;;;7.28;6.68;;;;;;;41.83;nan;99185.19;5035524;28;20036;-72
2022/07/16 10:04:43;;;;;;;6.05;5.60;;;;;;;39.16;nan;99242.44;5035281;28;20093;-70
2022/07/16 10:07:08;;;;;;;5.30;4.80;;;;;;;37.27;nan;99184.16;5017217;28;20052;-71
2022/07/16 10:09:33;;;;;;;8.32;3.90;;;;;;;35.85;nan;99179.72;5017335;28;20503;-73
2022/07/16 10:12:08;;;;;;;3.85;3.53;;;;;;;34.90;nan;99176.97;5035738;28;20040;-74
2022/07/16 10:14:35;;;;;;;3.80;3.45;;;;;;;34.06;nan;99171.94;5000783;28;20044;-75
2022/07/16 10:17:00;;;;;;;5.72;3.35;;;;;;;33.36;nan;99182.47;5017386;28;20136;-74
2022/07/16 10:19:33;;;;;;;3.47;3.17;;;;;;;32.89;nan;99178.81;5035287;28;20148;-69
2022/07/16 10:22:18;;;;;;;;;;;;;;;32.97;nan;99170.88;5035610;28;20048;-71
2022/07/16 10:24:53;;;;;;;7.13;2.92;;;;;;;32.49;nan;99176.59;5034985;28;19922;-71
2022/07/16 10:27:28;;;;;;;3.30;3.00;;;;;;;32.97;nan;99173.63;5035077;28;20048;-71
2022/07/16 10:30:25;;;;;;;3.58;3.33;;;;;;;36.04;nan;99180.72;5016600;28;20052;-71
2022/07/16 10:32:59;;;;;;;7.28;3.75;;;;;;;40.02;nan;99186.84;5016996;28;20044;-71
2022/07/16 10:35:48;;;;;;;4.05;3.72;;;;;;;42.20;nan;99189.38;5017012;28;20059;-70
2022/07/16 10:38:24;;;;;;;6.32;4.70;;;;;;;40.88;nan;99187.53;5034829;28;20041;-71
2022/07/16 10:41:09;;;;;;;3.80;3.50;;;;;;;38.43;nan;99179.81;5000381;28;20036;-71
2022/07/16 10:43:35;;;;;;;3.72;3.42;;;;;;;35.18;nan;99187.44;5017087;28;20060;-70
2022/07/16 10:46:03;;;;;;;4.22;3.35;;;;;;;33.50;nan;99183.63;5016638;28;20051;-71
2022/07/16 10:48:49;;;;;;;2.85;2.65;;;;;;;32.46;nan;99173.25;5035000;28;20044;-70
2022/07/16 10:51:25;;;;;;;3.45;2.53;;;;;;;31.88;nan;99167.69;5023886;28;20117;-71
2022/07/16 10:54:01;;;;;;;4.65;2.53;;;;;;;31.03;nan;99174.56;5017671;28;20518;-72
2022/07/16 10:56:40;;;;;;;3.25;2.85;;;;;;;30.52;nan;99173.75;5000623;28;20044;-72
2022/07/16 10:59:11;;;;;;;5.78;3.33;;;;;;;30.10;nan;99176.06;5017987;28;20029;-73
2022/07/16 11:01:37;;;;;;;3.45;3.10;;;;;;;29.78;nan;99172.97;4985197;28;20109;-72
2022/07/16 11:04:05;;;;;;;3.10;2.63;;;;;;;29.39;nan;99180.13;5035880;28;20060;-73
2022/07/16 11:06:30;;;;;;;3.42;2.75;;;;;;;28.70;nan;99190.03;5018146;28;20040;-72
2022/07/16 11:09:01;;;;;;;2.85;2.60;;;;;;;28.19;nan;99196.16;5035516;28;20049;-74
2022/07/16 11:11:33;;;;;;;2.78;2.50;;;;;;;27.45;nan;99191.84;5039091;28;20044;-74
2022/07/16 11:13:58;;;;;;;2.90;2.70;;;;;;;26.84;nan;99189.97;5021091;28;20067;-70
2022/07/16 11:16:23;;;;;;;2.70;2.25;;;;;;;26.57;nan;99194.00;5004113;28;20048;-72
2022/07/16 11:18:48;;;;;;;6.13;2.72;;;;;;;26.53;nan;99190.03;5038804;28;20131;-72
2022/07/16 11:21:12;;;;;;;6.35;3.25;;;;;;;26.49;nan;99192.41;5039173;28;20040;-73
2022/07/16 11:23:51;;;;;;;6.80;2.50;;;;;;;26.66;nan;99206.34;5039198;28;20040;-72
2022/07/16 11:26:16;;;;;;;3.58;2.60;;;;;;;26.58;nan;99203.88;5020949;28;20041;-71
2022/07/16 11:29:01;;;;;;;6.10;2.58;;;;;;;26.84;nan;99197.34;5020832;28;20040;-73
2022/07/16 11:31:30;;;;;;;3.35;2.50;;;;;;;26.91;nan;99198.09;5005092;28;20437;-73
2022/07/16 11:34:18;;;;;;;5.47;2.83;;;;;;;27.10;nan;99199.81;5004470;28;20044;-71
2022/07/16 11:36:47;;;;;;;5.50;2.88;;;;;;;26.90;nan;99197.28;5038717;28;20040;-77
2022/07/16 11:39:18;;;;;;;8.05;4.18;;;;;;;26.81;nan;99203.25;5020822;28;20052;-74
2022/07/16 11:41:46;;;;;;;2.40;2.20;;;;;;;26.79;nan;99200.75;5039837;28;20537;-75
2022/07/16 11:44:16;;;;;;;4.63;2.70;;;;;;;26.77;nan;99200.97;5045066;28;20427;-78
2022/07/16 11:46:51;;;;;;;13.20;4.15;;;;;;;26.84;nan;99203.66;5040633;28;20491;-77
2022/07/16 11:49:33;;;;;;;2.17;1.90;;;;;;;26.94;nan;99195.81;5022709;28;20070;-79
2022/07/16 11:52:03;;;;;;;13.63;3.50;;;;;;;26.75;nan;99199.50;5040558;28;20537;-76